DAAT METAR and TAF | Updated Today

DAAT METAR

Aguenar – Hadj Bey Akhamok Airport

Observation time: 8 min. ago

DAAT 061900Z 18006KT CAVOK 19/M12 Q1021

Need help? Read our tutorial on how to read METARs or read the parsed version below.

Aguenar – Hadj Bey Akhamok Airport (DAAT) METAR

  • Weather conditions on Mon, 06 Feb 2023 19:00:00 +0000 (8 min. ago):
  • Present conditions: Dry
  • Clouds: Clear skies
  • Visibility: Greater than 10 km
  • Wind: 180 degrees at 6 knots
  • Temperature: 19 celsius
  • Dew point: -12 celsius
  • Pressure: 1021 millibars
  • Remarks: None


Useful to know...

DAAT TAF

Aguenar – Hadj Bey Akhamok Airport

TAF DAAT 061700Z 0618/0718 22008KT CAVOK BECMG 0620/0622 08010KT
Observation time: 2:08 hr. ago
Need help? Read our tutorial on how to read TAFs or read the parsed version below.

Parsed version of TAF for Aguenar – Hadj Bey Akhamok Airport (DAAT)

  • From 06 February at 18:00 UTC, to day 07 of the month at 18:00 UTC
  • Visibility: Greater than 10 km
  • Wind: 220 degrees at 8
  • Expected to arise soon, from 06 February at 20:00 UTC, to day 06 of the month at 22:00 UTC
  • Wind: 80 degrees at 10

Airports near DAAT

No airports found within 100nm radius.